sensor_id;sensor_type;location;lat;lon;timestamp;P1;durP1;ratioP1;P2;durP2;ratioP2
30335;SDS011;17142;47.990;7.846;2023-12-28T07:42:34;2.10;;;1.67;;
30335;SDS011;17142;47.990;7.846;2023-12-28T07:44:59;1.30;;;1.10;;
30335;SDS011;17142;47.990;7.846;2023-12-28T07:47:27;1.40;;;1.30;;
30335;SDS011;17142;47.990;7.846;2023-12-28T07:49:53;1.47;;;1.37;;
30335;SDS011;17142;47.990;7.846;2023-12-28T07:52:22;2.17;;;1.17;;
30335;SDS011;17142;47.990;7.846;2023-12-28T07:54:47;3.60;;;1.57;;
30335;SDS011;17142;47.990;7.846;2023-12-28T07:57:13;1.23;;;1.13;;
30335;SDS011;17142;47.990;7.846;2023-12-28T07:59:39;2.00;;;1.80;;
30335;SDS011;17142;47.990;7.846;2023-12-28T08:02:05;2.13;;;1.00;;
30335;SDS011;17142;47.990;7.846;2023-12-28T08:04:35;2.43;;;1.17;;
30335;SDS011;17142;47.990;7.846;2023-12-28T08:07:01;3.87;;;2.17;;
30335;SDS011;17142;47.990;7.846;2023-12-28T08:09:26;1.90;;;1.80;;
30335;SDS011;17142;47.990;7.846;2023-12-28T08:11:52;3.03;;;1.60;;
30335;SDS011;17142;47.990;7.846;2023-12-28T08:14:17;4.20;;;1.50;;
30335;SDS011;17142;47.990;7.846;2023-12-28T08:16:46;3.93;;;1.23;;
30335;SDS011;17142;47.990;7.846;2023-12-28T08:19:14;1.40;;;1.20;;
30335;SDS011;17142;47.990;7.846;2023-12-28T08:21:40;2.60;;;1.30;;
30335;SDS011;17142;47.990;7.846;2023-12-28T08:24:06;1.70;;;1.10;;
30335;SDS011;17142;47.990;7.846;2023-12-28T08:26:31;2.27;;;1.23;;
30335;SDS011;17142;47.990;7.846;2023-12-28T08:28:58;2.50;;;1.83;;
30335;SDS011;17142;47.990;7.846;2023-12-28T08:31:24;4.30;;;1.97;;
30335;SDS011;17142;47.990;7.846;2023-12-28T08:33:49;6.50;;;1.30;;
30335;SDS011;17142;47.990;7.846;2023-12-28T08:36:15;0.90;;;0.80;;
30335;SDS011;17142;47.990;7.846;2023-12-28T08:38:42;1.73;;;1.43;;
30335;SDS011;17142;47.990;7.846;2023-12-28T08:41:17;2.67;;;1.40;;
30335;SDS011;17142;47.990;7.846;2023-12-28T08:43:44;2.57;;;1.50;;
30335;SDS011;17142;47.990;7.846;2023-12-28T08:46:09;1.30;;;1.20;;
30335;SDS011;17142;47.990;7.846;2023-12-28T08:48:35;1.70;;;1.17;;
30335;SDS011;17142;47.990;7.846;2023-12-28T08:51:01;3.57;;;1.83;;
30335;SDS011;17142;47.990;7.846;2023-12-28T08:53:26;2.10;;;1.27;;
30335;SDS011;17142;47.990;7.846;2023-12-28T08:55:52;1.67;;;1.57;;
30335;SDS011;17142;47.990;7.846;2023-12-28T08:58:20;1.43;;;1.10;;
30335;SDS011;17142;47.990;7.846;2023-12-28T09:00:45;2.83;;;1.20;;
30335;SDS011;17142;47.990;7.846;2023-12-28T09:03:12;5.03;;;1.50;;
30335;SDS011;17142;47.990;7.846;2023-12-28T09:05:40;3.60;;;1.60;;
30335;SDS011;17142;47.990;7.846;2023-12-28T09:08:06;1.23;;;1.10;;
30335;SDS011;17142;47.990;7.846;2023-12-28T09:10:33;1.27;;;1.17;;
30335;SDS011;17142;47.990;7.846;2023-12-28T09:12:58;2.87;;;1.33;;
30335;SDS011;17142;47.990;7.846;2023-12-28T09:15:25;1.40;;;1.27;;
30335;SDS011;17142;47.990;7.846;2023-12-28T09:17:50;3.57;;;1.60;;
30335;SDS011;17142;47.990;7.846;2023-12-28T09:20:16;1.63;;;1.33;;
30335;SDS011;17142;47.990;7.846;2023-12-28T09:22:43;2.60;;;2.40;;
30335;SDS011;17142;47.990;7.846;2023-12-28T09:25:09;4.70;;;1.90;;
30335;SDS011;17142;47.990;7.846;2023-12-28T09:27:34;3.77;;;1.80;;
30335;SDS011;17142;47.990;7.846;2023-12-28T09:30:01;4.30;;;2.27;;
30335;SDS011;17142;47.990;7.846;2023-12-28T09:32:26;2.50;;;1.70;;
30335;SDS011;17142;47.990;7.846;2023-12-28T09:34:54;7.73;;;3.27;;
30335;SDS011;17142;47.990;7.846;2023-12-28T09:37:22;2.97;;;1.90;;
30335;SDS011;17142;47.990;7.846;2023-12-28T09:39:50;2.23;;;1.20;;
30335;SDS011;17142;47.990;7.846;2023-12-28T09:42:16;1.73;;;1.33;;
30335;SDS011;17142;47.990;7.846;2023-12-28T09:44:49;2.13;;;1.60;;
30335;SDS011;17142;47.990;7.846;2023-12-28T09:47:15;1.87;;;1.60;;
30335;SDS011;17142;47.990;7.846;2023-12-28T09:49:42;1.90;;;1.30;;
30335;SDS011;17142;47.990;7.846;2023-12-28T09:52:09;1.63;;;1.53;;
30335;SDS011;17142;47.990;7.846;2023-12-28T09:54:35;3.90;;;1.70;;
30335;SDS011;17142;47.990;7.846;2023-12-28T09:57:00;1.50;;;1.40;;
30335;SDS011;17142;47.990;7.846;2023-12-28T09:59:26;1.47;;;1.33;;
30335;SDS011;17142;47.990;7.846;2023-12-28T10:01:56;2.93;;;1.67;;
30335;SDS011;17142;47.990;7.846;2023-12-28T10:04:26;2.33;;;1.40;;
30335;SDS011;17142;47.990;7.846;2023-12-28T10:06:54;3.10;;;1.60;;
30335;SDS011;17142;47.990;7.846;2023-12-28T10:09:20;1.50;;;1.40;;
30335;SDS011;17142;47.990;7.846;2023-12-28T10:11:46;2.10;;;1.43;;
30335;SDS011;17142;47.990;7.846;2023-12-28T10:14:15;1.90;;;1.80;;
30335;SDS011;17142;47.990;7.846;2023-12-28T10:16:41;1.80;;;1.70;;
30335;SDS011;17142;47.990;7.846;2023-12-28T10:19:09;2.77;;;1.30;;
30335;SDS011;17142;47.990;7.846;2023-12-28T10:21:34;2.53;;;1.70;;
30335;SDS011;17142;47.990;7.846;2023-12-28T10:24:01;2.20;;;1.60;;
30335;SDS011;17142;47.990;7.846;2023-12-28T10:26:27;2.67;;;1.47;;
30335;SDS011;17142;47.990;7.846;2023-12-28T10:28:58;2.47;;;1.90;;
30335;SDS011;17142;47.990;7.846;2023-12-28T10:31:30;1.67;;;1.53;;
30335;SDS011;17142;47.990;7.846;2023-12-28T10:33:59;3.23;;;2.33;;
30335;SDS011;17142;47.990;7.846;2023-12-28T10:36:27;2.40;;;1.93;;
30335;SDS011;17142;47.990;7.846;2023-12-28T10:38:53;4.33;;;1.87;;
30335;SDS011;17142;47.990;7.846;2023-12-28T10:41:19;3.50;;;1.40;;
30335;SDS011;17142;47.990;7.846;2023-12-28T10:44:00;3.43;;;1.43;;
30335;SDS011;17142;47.990;7.846;2023-12-28T10:46:30;2.70;;;1.97;;
30335;SDS011;17142;47.990;7.846;2023-12-28T10:49:16;2.40;;;1.47;;
30335;SDS011;17142;47.990;7.846;2023-12-28T10:51:42;2.43;;;1.63;;
30335;SDS011;17142;47.990;7.846;2023-12-28T10:56:59;2.60;;;1.80;;
30335;SDS011;17142;47.990;7.846;2023-12-28T11:01:58;2.77;;;1.77;;
30335;SDS011;17142;47.990;7.846;2023-12-28T11:06:55;2.40;;;1.77;;
30335;SDS011;17142;47.990;7.846;2023-12-28T11:09:23;2.47;;;2.27;;
30335;SDS011;17142;47.990;7.846;2023-12-28T11:11:51;1.77;;;1.30;;
30335;SDS011;17142;47.990;7.846;2023-12-28T11:14:18;3.03;;;1.50;;
30335;SDS011;17142;47.990;7.846;2023-12-28T11:16:45;3.07;;;1.70;;
30335;SDS011;17142;47.990;7.846;2023-12-28T11:19:11;2.07;;;1.87;;
30335;SDS011;17142;47.990;7.846;2023-12-28T11:21:38;2.20;;;1.57;;
30335;SDS011;17142;47.990;7.846;2023-12-28T11:24:04;2.00;;;1.80;;
30335;SDS011;17142;47.990;7.846;2023-12-28T11:26:30;3.33;;;1.80;;
30335;SDS011;17142;47.990;7.846;2023-12-28T11:29:02;2.33;;;2.10;;
30335;SDS011;17142;47.990;7.846;2023-12-28T11:31:28;2.17;;;1.77;;
30335;SDS011;17142;47.990;7.846;2023-12-28T11:33:57;3.30;;;1.70;;
30335;SDS011;17142;47.990;7.846;2023-12-28T11:36:38;2.33;;;1.70;;
30335;SDS011;17142;47.990;7.846;2023-12-28T11:39:09;2.20;;;1.87;;
30335;SDS011;17142;47.990;7.846;2023-12-28T11:41:36;2.03;;;1.83;;
30335;SDS011;17142;47.990;7.846;2023-12-28T11:44:04;5.70;;;2.33;;
30335;SDS011;17142;47.990;7.846;2023-12-28T11:46:32;1.90;;;1.47;;
30335;SDS011;17142;47.990;7.846;2023-12-28T11:49:07;2.80;;;2.10;;
30335;SDS011;17142;47.990;7.846;2023-12-28T11:51:34;3.60;;;1.90;;
30335;SDS011;17142;47.990;7.846;2023-12-28T11:54:04;3.00;;;2.13;;
30335;SDS011;17142;47.990;7.846;2023-12-28T11:56:33;3.03;;;2.10;;
30335;SDS011;17142;47.990;7.846;2023-12-28T11:59:01;3.37;;;1.80;;
30335;SDS011;17142;47.990;7.846;2023-12-28T12:01:30;3.87;;;1.90;;
30335;SDS011;17142;47.990;7.846;2023-12-28T12:03:55;5.40;;;2.17;;
30335;SDS011;17142;47.990;7.846;2023-12-28T12:06:23;3.00;;;2.00;;
30335;SDS011;17142;47.990;7.846;2023-12-28T12:08:49;4.63;;;1.60;;
30335;SDS011;17142;47.990;7.846;2023-12-28T12:11:15;7.37;;;2.20;;
30335;SDS011;17142;47.990;7.846;2023-12-28T12:13:45;3.13;;;1.83;;
30335;SDS011;17142;47.990;7.846;2023-12-28T12:16:15;3.17;;;2.30;;
30335;SDS011;17142;47.990;7.846;2023-12-28T12:18:43;4.87;;;1.87;;
30335;SDS011;17142;47.990;7.846;2023-12-28T12:21:12;2.20;;;1.60;;
30335;SDS011;17142;47.990;7.846;2023-12-28T12:23:37;2.10;;;1.90;;
30335;SDS011;17142;47.990;7.846;2023-12-28T12:26:06;3.13;;;2.43;;
30335;SDS011;17142;47.990;7.846;2023-12-28T12:28:32;2.73;;;1.93;;
30335;SDS011;17142;47.990;7.846;2023-12-28T12:30:58;2.67;;;1.87;;
30335;SDS011;17142;47.990;7.846;2023-12-28T12:33:26;2.10;;;1.60;;
30335;SDS011;17142;47.990;7.846;2023-12-28T12:35:53;2.37;;;1.80;;
30335;SDS011;17142;47.990;7.846;2023-12-28T12:38:21;2.60;;;1.87;;
30335;SDS011;17142;47.990;7.846;2023-12-28T12:40:50;3.40;;;2.27;;
30335;SDS011;17142;47.990;7.846;2023-12-28T12:43:16;3.33;;;1.93;;
30335;SDS011;17142;47.990;7.846;2023-12-28T12:45:44;3.00;;;2.00;;
30335;SDS011;17142;47.990;7.846;2023-12-28T12:48:11;1.97;;;1.87;;
30335;SDS011;17142;47.990;7.846;2023-12-28T12:50:39;2.57;;;2.10;;
30335;SDS011;17142;47.990;7.846;2023-12-28T12:53:07;5.17;;;3.27;;
30335;SDS011;17142;47.990;7.846;2023-12-28T12:55:36;7.73;;;2.63;;
30335;SDS011;17142;47.990;7.846;2023-12-28T12:58:05;2.63;;;2.20;;
30335;SDS011;17142;47.990;7.846;2023-12-28T13:00:33;3.90;;;1.93;;
30335;SDS011;17142;47.990;7.846;2023-12-28T13:02:59;3.37;;;2.00;;
30335;SDS011;17142;47.990;7.846;2023-12-28T13:05:25;3.43;;;2.30;;
30335;SDS011;17142;47.990;7.846;2023-12-28T13:07:51;2.40;;;2.20;;
30335;SDS011;17142;47.990;7.846;2023-12-28T13:10:16;3.20;;;2.10;;
30335;SDS011;17142;47.990;7.846;2023-12-28T13:12:45;3.40;;;2.10;;
30335;SDS011;17142;47.990;7.846;2023-12-28T13:15:10;3.07;;;2.40;;
30335;SDS011;17142;47.990;7.846;2023-12-28T13:17:36;2.43;;;2.03;;
30335;SDS011;17142;47.990;7.846;2023-12-28T13:20:04;3.00;;;2.27;;
30335;SDS011;17142;47.990;7.846;2023-12-28T13:22:34;4.03;;;2.20;;
30335;SDS011;17142;47.990;7.846;2023-12-28T13:25:02;3.50;;;2.40;;
30335;SDS011;17142;47.990;7.846;2023-12-28T13:27:29;7.93;;;2.90;;
30335;SDS011;17142;47.990;7.846;2023-12-28T13:29:56;2.43;;;2.20;;
30335;SDS011;17142;47.990;7.846;2023-12-28T13:32:22;2.50;;;2.30;;
30335;SDS011;17142;47.990;7.846;2023-12-28T13:34:48;4.30;;;2.60;;
30335;SDS011;17142;47.990;7.846;2023-12-28T13:37:15;3.20;;;2.53;;
30335;SDS011;17142;47.990;7.846;2023-12-28T13:39:41;4.70;;;2.80;;
30335;SDS011;17142;47.990;7.846;2023-12-28T13:42:07;4.00;;;2.83;;
30335;SDS011;17142;47.990;7.846;2023-12-28T13:44:33;2.93;;;2.53;;
30335;SDS011;17142;47.990;7.846;2023-12-28T13:47:00;3.73;;;2.90;;
30335;SDS011;17142;47.990;7.846;2023-12-28T13:49:30;2.87;;;2.30;;
30335;SDS011;17142;47.990;7.846;2023-12-28T13:51:56;2.40;;;2.20;;
30335;SDS011;17142;47.990;7.846;2023-12-28T13:54:22;7.53;;;3.23;;
30335;SDS011;17142;47.990;7.846;2023-12-28T13:56:48;5.13;;;2.70;;
30335;SDS011;17142;47.990;7.846;2023-12-28T13:59:16;3.87;;;2.53;;
30335;SDS011;17142;47.990;7.846;2023-12-28T14:01:41;6.23;;;2.90;;
30335;SDS011;17142;47.990;7.846;2023-12-28T14:04:07;4.43;;;3.17;;
30335;SDS011;17142;47.990;7.846;2023-12-28T14:06:35;4.50;;;3.07;;
30335;SDS011;17142;47.990;7.846;2023-12-28T14:09:00;3.30;;;2.77;;
30335;SDS011;17142;47.990;7.846;2023-12-28T14:11:28;3.30;;;3.00;;
30335;SDS011;17142;47.990;7.846;2023-12-28T14:13:54;6.70;;;3.77;;
30335;SDS011;17142;47.990;7.846;2023-12-28T14:16:19;5.20;;;3.70;;
30335;SDS011;17142;47.990;7.846;2023-12-28T14:18:45;5.57;;;3.17;;
30335;SDS011;17142;47.990;7.846;2023-12-28T14:21:12;3.67;;;2.37;;
30335;SDS011;17142;47.990;7.846;2023-12-28T14:23:38;3.10;;;2.80;;
30335;SDS011;17142;47.990;7.846;2023-12-28T14:26:15;5.67;;;3.40;;
30335;SDS011;17142;47.990;7.846;2023-12-28T14:28:44;3.30;;;2.40;;
30335;SDS011;17142;47.990;7.846;2023-12-28T14:31:10;3.43;;;2.90;;
30335;SDS011;17142;47.990;7.846;2023-12-28T14:33:37;2.70;;;2.40;;
30335;SDS011;17142;47.990;7.846;2023-12-28T14:36:27;4.57;;;2.53;;
30335;SDS011;17142;47.990;7.846;2023-12-28T14:39:00;3.97;;;2.70;;
30335;SDS011;17142;47.990;7.846;2023-12-28T14:41:30;2.87;;;2.60;;
30335;SDS011;17142;47.990;7.846;2023-12-28T14:43:56;3.10;;;2.40;;
30335;SDS011;17142;47.990;7.846;2023-12-28T14:46:24;3.47;;;2.93;;
30335;SDS011;17142;47.990;7.846;2023-12-28T14:48:51;2.63;;;2.43;;
30335;SDS011;17142;47.990;7.846;2023-12-28T14:51:19;2.53;;;2.23;;
30335;SDS011;17142;47.990;7.846;2023-12-28T14:53:45;2.87;;;2.67;;
30335;SDS011;17142;47.990;7.846;2023-12-28T14:56:11;4.27;;;2.37;;
30335;SDS011;17142;47.990;7.846;2023-12-28T14:58:41;2.83;;;2.17;;
30335;SDS011;17142;47.990;7.846;2023-12-28T15:01:10;4.60;;;2.13;;
30335;SDS011;17142;47.990;7.846;2023-12-28T15:03:37;2.27;;;2.07;;
30335;SDS011;17142;47.990;7.846;2023-12-28T15:06:05;3.40;;;1.87;;
30335;SDS011;17142;47.990;7.846;2023-12-28T15:08:33;2.27;;;2.07;;
30335;SDS011;17142;47.990;7.846;2023-12-28T15:10:59;2.27;;;2.00;;
30335;SDS011;17142;47.990;7.846;2023-12-28T15:13:25;2.07;;;1.50;;
30335;SDS011;17142;47.990;7.846;2023-12-28T15:15:51;2.53;;;2.00;;
30335;SDS011;17142;47.990;7.846;2023-12-28T15:18:17;1.67;;;1.57;;
30335;SDS011;17142;47.990;7.846;2023-12-28T15:20:46;1.67;;;1.50;;
30335;SDS011;17142;47.990;7.846;2023-12-28T15:23:13;2.20;;;1.70;;
30335;SDS011;17142;47.990;7.846;2023-12-28T15:25:40;4.17;;;3.90;;
30335;SDS011;17142;47.990;7.846;2023-12-28T15:28:07;2.10;;;1.90;;
30335;SDS011;17142;47.990;7.846;2023-12-28T15:30:33;3.03;;;1.80;;
30335;SDS011;17142;47.990;7.846;2023-12-28T15:32:59;2.10;;;1.53;;
30335;SDS011;17142;47.990;7.846;2023-12-28T15:35:25;2.70;;;1.80;;
30335;SDS011;17142;47.990;7.846;2023-12-28T15:37:51;2.27;;;1.80;;
30335;SDS011;17142;47.990;7.846;2023-12-28T15:40:20;1.30;;;1.10;;
30335;SDS011;17142;47.990;7.846;2023-12-28T15:42:45;2.00;;;1.90;;
30335;SDS011;17142;47.990;7.846;2023-12-28T15:45:11;2.80;;;2.00;;
30335;SDS011;17142;47.990;7.846;2023-12-28T15:47:37;2.23;;;1.47;;
30335;SDS011;17142;47.990;7.846;2023-12-28T15:50:02;1.87;;;1.70;;
30335;SDS011;17142;47.990;7.846;2023-12-28T15:52:29;4.00;;;3.20;;
30335;SDS011;17142;47.990;7.846;2023-12-28T15:54:55;2.20;;;1.90;;
30335;SDS011;17142;47.990;7.846;2023-12-28T15:57:24;1.90;;;1.50;;
30335;SDS011;17142;47.990;7.846;2023-12-28T15:59:50;1.57;;;1.47;;
30335;SDS011;17142;47.990;7.846;2023-12-28T16:02:23;2.00;;;1.80;;
30335;SDS011;17142;47.990;7.846;2023-12-28T16:04:50;2.70;;;2.27;;
30335;SDS011;17142;47.990;7.846;2023-12-28T16:07:16;4.30;;;2.33;;
30335;SDS011;17142;47.990;7.846;2023-12-28T16:09:41;2.33;;;2.00;;
30335;SDS011;17142;47.990;7.846;2023-12-28T16:12:07;2.50;;;1.80;;
30335;SDS011;17142;47.990;7.846;2023-12-28T16:14:34;3.27;;;2.70;;
30335;SDS011;17142;47.990;7.846;2023-12-28T16:17:02;3.33;;;2.53;;
30335;SDS011;17142;47.990;7.846;2023-12-28T16:19:28;3.27;;;2.03;;
30335;SDS011;17142;47.990;7.846;2023-12-28T16:21:56;3.60;;;2.30;;
30335;SDS011;17142;47.990;7.846;2023-12-28T16:24:25;3.07;;;2.70;;
30335;SDS011;17142;47.990;7.846;2023-12-28T16:26:50;2.97;;;2.67;;
30335;SDS011;17142;47.990;7.846;2023-12-28T16:29:18;5.03;;;4.60;;
30335;SDS011;17142;47.990;7.846;2023-12-28T16:31:44;4.93;;;2.80;;
30335;SDS011;17142;47.990;7.846;2023-12-28T16:34:09;3.27;;;2.73;;
30335;SDS011;17142;47.990;7.846;2023-12-28T16:36:35;14.37;;;4.27;;
30335;SDS011;17142;47.990;7.846;2023-12-28T16:39:01;4.33;;;3.93;;
30335;SDS011;17142;47.990;7.846;2023-12-28T16:41:26;4.33;;;3.80;;
30335;SDS011;17142;47.990;7.846;2023-12-28T16:43:53;4.63;;;2.83;;
30335;SDS011;17142;47.990;7.846;2023-12-28T16:46:19;4.90;;;4.00;;
30335;SDS011;17142;47.990;7.846;2023-12-28T16:48:47;7.33;;;3.63;;
30335;SDS011;17142;47.990;7.846;2023-12-28T16:51:12;4.37;;;2.93;;
30335;SDS011;17142;47.990;7.846;2023-12-28T16:53:40;3.23;;;2.97;;
30335;SDS011;17142;47.990;7.846;2023-12-28T16:56:06;3.20;;;2.77;;
30335;SDS011;17142;47.990;7.846;2023-12-28T16:58:32;8.50;;;5.10;;
30335;SDS011;17142;47.990;7.846;2023-12-28T17:00:59;3.03;;;2.70;;
30335;SDS011;17142;47.990;7.846;2023-12-28T17:03:27;5.37;;;2.87;;
30335;SDS011;17142;47.990;7.846;2023-12-28T17:05:53;4.43;;;3.40;;
30335;SDS011;17142;47.990;7.846;2023-12-28T17:08:18;4.20;;;3.30;;
30335;SDS011;17142;47.990;7.846;2023-12-28T17:10:44;3.67;;;3.37;;
30335;SDS011;17142;47.990;7.846;2023-12-28T17:13:10;5.23;;;3.07;;
30335;SDS011;17142;47.990;7.846;2023-12-28T17:15:37;5.43;;;3.90;;
30335;SDS011;17142;47.990;7.846;2023-12-28T17:18:05;3.57;;;3.27;;
30335;SDS011;17142;47.990;7.846;2023-12-28T17:20:34;4.90;;;4.10;;
30335;SDS011;17142;47.990;7.846;2023-12-28T17:23:01;4.70;;;2.70;;
30335;SDS011;17142;47.990;7.846;2023-12-28T17:25:31;3.90;;;3.37;;
30335;SDS011;17142;47.990;7.846;2023-12-28T17:28:27;4.13;;;3.60;;
30335;SDS011;17142;47.990;7.846;2023-12-28T17:30:55;5.17;;;3.60;;
30335;SDS011;17142;47.990;7.846;2023-12-28T17:33:22;3.70;;;3.20;;
30335;SDS011;17142;47.990;7.846;2023-12-28T17:35:50;4.40;;;4.00;;
30335;SDS011;17142;47.990;7.846;2023-12-28T17:38:18;4.03;;;3.23;;
30335;SDS011;17142;47.990;7.846;2023-12-28T17:40:49;5.43;;;3.07;;
30335;SDS011;17142;47.990;7.846;2023-12-28T17:43:22;8.00;;;3.93;;
30335;SDS011;17142;47.990;7.846;2023-12-28T17:45:58;4.40;;;2.97;;
30335;SDS011;17142;47.990;7.846;2023-12-28T17:48:26;3.17;;;2.87;;
30335;SDS011;17142;47.990;7.846;2023-12-28T17:50:55;3.33;;;2.80;;
30335;SDS011;17142;47.990;7.846;2023-12-28T17:53:22;3.97;;;3.27;;
30335;SDS011;17142;47.990;7.846;2023-12-28T17:55:53;3.37;;;3.10;;
30335;SDS011;17142;47.990;7.846;2023-12-28T17:58:19;5.27;;;2.50;;
30335;SDS011;17142;47.990;7.846;2023-12-28T18:00:47;5.00;;;3.70;;
30335;SDS011;17142;47.990;7.846;2023-12-28T18:03:13;3.97;;;3.57;;
30335;SDS011;17142;47.990;7.846;2023-12-28T18:05:41;4.17;;;2.83;;
30335;SDS011;17142;47.990;7.846;2023-12-28T18:08:07;3.47;;;3.00;;
30335;SDS011;17142;47.990;7.846;2023-12-28T18:10:33;4.60;;;3.50;;
30335;SDS011;17142;47.990;7.846;2023-12-28T18:12:58;4.20;;;3.20;;
30335;SDS011;17142;47.990;7.846;2023-12-28T18:15:26;5.27;;;3.13;;
30335;SDS011;17142;47.990;7.846;2023-12-28T18:17:52;3.97;;;3.13;;
30335;SDS011;17142;47.990;7.846;2023-12-28T18:20:17;3.90;;;3.03;;
30335;SDS011;17142;47.990;7.846;2023-12-28T18:22:45;7.40;;;3.50;;
30335;SDS011;17142;47.990;7.846;2023-12-28T18:25:11;3.60;;;3.23;;
30335;SDS011;17142;47.990;7.846;2023-12-28T18:27:36;3.87;;;3.33;;
30335;SDS011;17142;47.990;7.846;2023-12-28T18:30:04;4.90;;;3.23;;
30335;SDS011;17142;47.990;7.846;2023-12-28T18:32:30;5.00;;;3.50;;
30335;SDS011;17142;47.990;7.846;2023-12-28T18:34:59;4.80;;;3.70;;
30335;SDS011;17142;47.990;7.846;2023-12-28T18:37:25;7.77;;;4.43;;
30335;SDS011;17142;47.990;7.846;2023-12-28T18:39:51;4.80;;;2.70;;
30335;SDS011;17142;47.990;7.846;2023-12-28T18:42:19;4.37;;;3.37;;
30335;SDS011;17142;47.990;7.846;2023-12-28T18:44:45;5.70;;;2.73;;
30335;SDS011;17142;47.990;7.846;2023-12-28T18:47:13;6.00;;;3.17;;
30335;SDS011;17142;47.990;7.846;2023-12-28T18:49:38;4.40;;;3.30;;
30335;SDS011;17142;47.990;7.846;2023-12-28T18:52:04;5.60;;;2.57;;
30335;SDS011;17142;47.990;7.846;2023-12-28T18:54:30;4.03;;;3.63;;
30335;SDS011;17142;47.990;7.846;2023-12-28T18:56:55;4.30;;;3.77;;
30335;SDS011;17142;47.990;7.846;2023-12-28T18:59:23;6.90;;;4.07;;
30335;SDS011;17142;47.990;7.846;2023-12-28T19:01:52;3.23;;;2.90;;
30335;SDS011;17142;47.990;7.846;2023-12-28T19:04:20;4.10;;;2.77;;
30335;SDS011;17142;47.990;7.846;2023-12-28T19:06:46;4.93;;;3.10;;
30335;SDS011;17142;47.990;7.846;2023-12-28T19:09:12;3.83;;;3.20;;
30335;SDS011;17142;47.990;7.846;2023-12-28T19:11:38;3.80;;;2.97;;
30335;SDS011;17142;47.990;7.846;2023-12-28T19:14:06;4.30;;;2.70;;
30335;SDS011;17142;47.990;7.846;2023-12-28T19:16:32;4.07;;;3.57;;
30335;SDS011;17142;47.990;7.846;2023-12-28T19:19:00;3.40;;;2.90;;
30335;SDS011;17142;47.990;7.846;2023-12-28T19:21:26;3.67;;;3.17;;
30335;SDS011;17142;47.990;7.846;2023-12-28T19:23:53;2.77;;;2.53;;
30335;SDS011;17142;47.990;7.846;2023-12-28T19:26:19;4.57;;;4.17;;
30335;SDS011;17142;47.990;7.846;2023-12-28T19:28:45;2.90;;;2.60;;
30335;SDS011;17142;47.990;7.846;2023-12-28T19:31:13;4.00;;;2.67;;
30335;SDS011;17142;47.990;7.846;2023-12-28T19:33:41;2.70;;;2.30;;
30335;SDS011;17142;47.990;7.846;2023-12-28T19:36:07;3.20;;;2.60;;
30335;SDS011;17142;47.990;7.846;2023-12-28T19:38:32;3.00;;;2.80;;
30335;SDS011;17142;47.990;7.846;2023-12-28T19:41:00;2.83;;;2.50;;
30335;SDS011;17142;47.990;7.846;2023-12-28T19:43:26;3.50;;;2.80;;
30335;SDS011;17142;47.990;7.846;2023-12-28T19:45:52;4.53;;;2.83;;
30335;SDS011;17142;47.990;7.846;2023-12-28T19:48:20;3.30;;;2.93;;
30335;SDS011;17142;47.990;7.846;2023-12-28T19:50:49;3.17;;;2.50;;
30335;SDS011;17142;47.990;7.846;2023-12-28T19:53:15;2.70;;;2.50;;
30335;SDS011;17142;47.990;7.846;2023-12-28T19:55:45;3.33;;;2.97;;
30335;SDS011;17142;47.990;7.846;2023-12-28T19:58:13;3.47;;;3.17;;
30335;SDS011;17142;47.990;7.846;2023-12-28T20:00:40;4.03;;;2.80;;
30335;SDS011;17142;47.990;7.846;2023-12-28T20:03:05;3.57;;;2.40;;
30335;SDS011;17142;47.990;7.846;2023-12-28T20:05:31;4.07;;;2.87;;
30335;SDS011;17142;47.990;7.846;2023-12-28T20:07:57;6.27;;;2.80;;
30335;SDS011;17142;47.990;7.846;2023-12-28T20:10:27;4.00;;;2.40;;
30335;SDS011;17142;47.990;7.846;2023-12-28T20:12:55;3.60;;;3.03;;
30335;SDS011;17142;47.990;7.846;2023-12-28T20:15:21;3.63;;;2.50;;
30335;SDS011;17142;47.990;7.846;2023-12-28T20:17:48;4.83;;;2.93;;
30335;SDS011;17142;47.990;7.846;2023-12-28T20:20:15;3.20;;;2.80;;
30335;SDS011;17142;47.990;7.846;2023-12-28T20:22:40;3.33;;;2.60;;
30335;SDS011;17142;47.990;7.846;2023-12-28T20:25:06;2.77;;;2.50;;
30335;SDS011;17142;47.990;7.846;2023-12-28T20:27:32;3.43;;;3.00;;
30335;SDS011;17142;47.990;7.846;2023-12-28T20:29:58;3.70;;;2.63;;
30335;SDS011;17142;47.990;7.846;2023-12-28T20:32:24;4.90;;;2.70;;
30335;SDS011;17142;47.990;7.846;2023-12-28T20:34:49;3.03;;;2.67;;
30335;SDS011;17142;47.990;7.846;2023-12-28T20:37:15;2.33;;;2.13;;
30335;SDS011;17142;47.990;7.846;2023-12-28T20:39:40;5.27;;;2.60;;
30335;SDS011;17142;47.990;7.846;2023-12-28T20:42:09;2.43;;;2.23;;
30335;SDS011;17142;47.990;7.846;2023-12-28T20:44:34;3.27;;;2.67;;
30335;SDS011;17142;47.990;7.846;2023-12-28T20:47:00;3.60;;;2.57;;
30335;SDS011;17142;47.990;7.846;2023-12-28T20:49:26;3.23;;;2.40;;
30335;SDS011;17142;47.990;7.846;2023-12-28T20:51:52;2.63;;;2.43;;
30335;SDS011;17142;47.990;7.846;2023-12-28T20:54:18;2.87;;;2.53;;
30335;SDS011;17142;47.990;7.846;2023-12-28T20:56:47;4.30;;;2.30;;
30335;SDS011;17142;47.990;7.846;2023-12-28T20:59:15;2.57;;;2.37;;
30335;SDS011;17142;47.990;7.846;2023-12-28T21:01:40;2.57;;;2.10;;
30335;SDS011;17142;47.990;7.846;2023-12-28T21:04:09;4.80;;;2.30;;
30335;SDS011;17142;47.990;7.846;2023-12-28T21:06:36;3.57;;;2.47;;
30335;SDS011;17142;47.990;7.846;2023-12-28T21:09:02;3.60;;;3.30;;
30335;SDS011;17142;47.990;7.846;2023-12-28T21:11:28;3.30;;;2.43;;
30335;SDS011;17142;47.990;7.846;2023-12-28T21:13:54;2.40;;;2.20;;
30335;SDS011;17142;47.990;7.846;2023-12-28T21:16:40;4.03;;;2.70;;
30335;SDS011;17142;47.990;7.846;2023-12-28T21:19:08;3.47;;;2.30;;
30335;SDS011;17142;47.990;7.846;2023-12-28T21:21:37;3.33;;;2.77;;
30335;SDS011;17142;47.990;7.846;2023-12-28T21:24:03;3.13;;;2.77;;
30335;SDS011;17142;47.990;7.846;2023-12-28T21:28:59;4.20;;;3.00;;
30335;SDS011;17142;47.990;7.846;2023-12-28T21:31:25;4.70;;;2.80;;
30335;SDS011;17142;47.990;7.846;2023-12-28T21:33:53;3.17;;;2.87;;
30335;SDS011;17142;47.990;7.846;2023-12-28T21:36:19;4.17;;;3.10;;
30335;SDS011;17142;47.990;7.846;2023-12-28T21:38:44;4.90;;;3.33;;
30335;SDS011;17142;47.990;7.846;2023-12-28T21:41:10;7.10;;;3.20;;
30335;SDS011;17142;47.990;7.846;2023-12-28T21:43:38;3.30;;;2.93;;
30335;SDS011;17142;47.990;7.846;2023-12-28T21:46:04;6.20;;;3.40;;
30335;SDS011;17142;47.990;7.846;2023-12-28T21:48:33;5.47;;;3.50;;
30335;SDS011;17142;47.990;7.846;2023-12-28T21:50:58;3.40;;;3.10;;
30335;SDS011;17142;47.990;7.846;2023-12-28T21:53:25;3.53;;;3.00;;
30335;SDS011;17142;47.990;7.846;2023-12-28T21:55:51;3.47;;;3.10;;
30335;SDS011;17142;47.990;7.846;2023-12-28T21:58:24;4.23;;;2.87;;
30335;SDS011;17142;47.990;7.846;2023-12-28T22:00:50;3.83;;;3.27;;
30335;SDS011;17142;47.990;7.846;2023-12-28T22:03:16;2.90;;;2.53;;
30335;SDS011;17142;47.990;7.846;2023-12-28T22:05:41;3.10;;;2.83;;
30335;SDS011;17142;47.990;7.846;2023-12-28T22:08:07;2.90;;;2.60;;
30335;SDS011;17142;47.990;7.846;2023-12-28T22:10:33;3.50;;;3.20;;
30335;SDS011;17142;47.990;7.846;2023-12-28T22:12:59;3.23;;;2.50;;
30335;SDS011;17142;47.990;7.846;2023-12-28T22:15:25;3.23;;;2.67;;
30335;SDS011;17142;47.990;7.846;2023-12-28T22:17:51;2.27;;;2.10;;
30335;SDS011;17142;47.990;7.846;2023-12-28T22:20:16;3.37;;;2.70;;
30335;SDS011;17142;47.990;7.846;2023-12-28T22:22:44;3.53;;;2.40;;
30335;SDS011;17142;47.990;7.846;2023-12-28T22:25:10;3.13;;;2.83;;
30335;SDS011;17142;47.990;7.846;2023-12-28T22:27:35;4.03;;;2.90;;
30335;SDS011;17142;47.990;7.846;2023-12-28T22:30:01;3.20;;;2.30;;
30335;SDS011;17142;47.990;7.846;2023-12-28T22:32:31;5.07;;;2.27;;
30335;SDS011;17142;47.990;7.846;2023-12-28T22:35:00;3.23;;;2.60;;
30335;SDS011;17142;47.990;7.846;2023-12-28T22:37:26;3.80;;;2.73;;
30335;SDS011;17142;47.990;7.846;2023-12-28T22:39:51;4.20;;;3.80;;